createdAt,value
2019-03-15T00:01:39.944Z,7.70
2019-03-15T00:04:08.335Z,7.70
2019-03-15T00:06:36.725Z,7.70
2019-03-15T00:09:09.453Z,7.70
2019-03-15T00:11:37.835Z,7.70
2019-03-15T00:14:06.711Z,7.80
2019-03-15T00:16:35.115Z,7.80
2019-03-15T00:19:03.575Z,7.80
2019-03-15T00:21:31.987Z,7.80
2019-03-15T00:24:00.383Z,7.90
2019-03-15T00:26:28.779Z,7.80
2019-03-15T00:28:57.167Z,7.70
2019-03-15T00:31:25.574Z,7.60
2019-03-15T00:33:53.959Z,7.50
2019-03-15T00:36:22.346Z,7.60
2019-03-15T00:38:50.747Z,7.60
2019-03-15T00:41:19.123Z,7.60
2019-03-15T00:43:49.426Z,7.60
2019-03-15T00:46:17.702Z,7.60
2019-03-15T00:48:46.099Z,7.60
2019-03-15T00:51:14.488Z,7.70
2019-03-15T00:53:42.879Z,7.70
2019-03-15T00:56:14.044Z,7.70
2019-03-15T00:58:42.445Z,7.70
2019-03-15T01:01:11.299Z,7.60
2019-03-15T01:03:39.741Z,7.60
2019-03-15T01:06:08.103Z,7.60
2019-03-15T01:08:36.516Z,7.60
2019-03-15T01:11:05.168Z,7.50
2019-03-15T01:13:33.554Z,7.50
2019-03-15T01:16:01.939Z,7.60
2019-03-15T01:18:30.340Z,7.60
2019-03-15T01:20:58.718Z,7.60
2019-03-15T01:23:27.107Z,7.60
2019-03-15T01:25:55.504Z,7.60
2019-03-15T01:28:23.887Z,7.70
2019-03-15T01:30:52.283Z,7.60
2019-03-15T01:33:20.694Z,7.60
2019-03-15T01:35:49.087Z,7.60
2019-03-15T01:38:17.476Z,7.60
2019-03-15T01:40:48.602Z,7.50
2019-03-15T01:43:15.984Z,7.50
2019-03-15T01:45:44.370Z,7.40
2019-03-15T01:48:12.771Z,7.40
2019-03-15T01:50:41.161Z,7.40
2019-03-15T01:53:09.560Z,7.40
2019-03-15T01:55:37.944Z,7.40
2019-03-15T01:58:06.327Z,7.40
2019-03-15T02:00:34.711Z,7.40
2019-03-15T02:03:03.100Z,7.50
2019-03-15T02:05:31.491Z,7.40
2019-03-15T02:08:00.697Z,7.40
2019-03-15T02:10:29.327Z,7.40
2019-03-15T02:12:57.729Z,7.40
2019-03-15T02:15:26.111Z,7.40
2019-03-15T02:17:54.503Z,7.40
2019-03-15T02:20:22.897Z,7.40
2019-03-15T02:22:51.279Z,7.40
2019-03-15T02:25:19.671Z,7.30
2019-03-15T02:27:48.072Z,7.40
2019-03-15T02:30:16.524Z,7.40
2019-03-15T02:32:44.981Z,7.40
2019-03-15T02:35:13.364Z,7.50
2019-03-15T02:37:41.759Z,7.50
2019-03-15T02:40:10.203Z,7.60
2019-03-15T02:42:39.019Z,7.60
2019-03-15T02:45:07.535Z,7.60
2019-03-15T02:47:35.913Z,7.60
2019-03-15T02:50:05.950Z,7.60
2019-03-15T02:52:34.333Z,7.60
2019-03-15T02:55:02.787Z,7.70
2019-03-15T02:57:31.174Z,7.70
2019-03-15T02:59:59.573Z,7.60
2019-03-15T03:02:28.060Z,7.60
2019-03-15T03:04:56.419Z,7.70
2019-03-15T03:07:24.820Z,7.70
2019-03-15T03:09:53.203Z,7.70
2019-03-15T03:12:21.593Z,7.70
2019-03-15T03:14:50.092Z,7.80
2019-03-15T03:17:18.475Z,7.70
2019-03-15T03:19:47.010Z,7.70
2019-03-15T03:22:15.397Z,7.70
2019-03-15T03:24:43.787Z,7.70
2019-03-15T03:27:12.172Z,7.80
2019-03-15T03:29:40.562Z,7.80
2019-03-15T03:32:08.945Z,7.70
2019-03-15T03:34:37.369Z,7.70
2019-03-15T03:37:05.754Z,7.70
2019-03-15T03:39:34.612Z,7.70
2019-03-15T03:42:03.263Z,7.70
2019-03-15T03:44:31.646Z,7.70
2019-03-15T03:47:00.023Z,7.60
2019-03-15T03:49:28.415Z,7.60
2019-03-15T03:51:56.799Z,7.60
2019-03-15T03:54:25.263Z,7.60
2019-03-15T03:56:53.721Z,7.60
2019-03-15T03:59:22.176Z,7.60
2019-03-15T04:01:50.566Z,7.60
2019-03-15T04:04:19.087Z,7.60
2019-03-15T04:06:47.550Z,7.60
2019-03-15T04:09:15.935Z,7.50
2019-03-15T04:11:54.869Z,7.60
2019-03-15T04:14:14.508Z,7.60
2019-03-15T04:16:42.901Z,7.60
2019-03-15T04:19:11.463Z,7.60
2019-03-15T04:21:39.856Z,7.60
2019-03-15T04:24:08.251Z,7.60
2019-03-15T04:26:37.491Z,7.60
2019-03-15T04:29:05.888Z,7.60
2019-03-15T04:31:34.278Z,7.60
2019-03-15T04:34:02.732Z,7.60
2019-03-15T04:36:31.147Z,7.60
2019-03-15T04:38:59.544Z,7.60
2019-03-15T04:41:27.931Z,7.60
2019-03-15T04:43:56.326Z,7.70
2019-03-15T04:46:24.707Z,7.60
2019-03-15T04:48:53.089Z,7.70
2019-03-15T04:51:21.490Z,7.70
2019-03-15T04:53:49.875Z,7.60
2019-03-15T04:56:18.263Z,7.70
2019-03-15T04:58:46.759Z,7.70
2019-03-15T05:01:15.159Z,7.70
2019-03-15T05:03:43.551Z,7.70
2019-03-15T05:06:11.949Z,7.70
2019-03-15T05:08:40.336Z,7.70
2019-03-15T05:11:08.711Z,7.70
2019-03-15T05:13:37.123Z,7.80
2019-03-15T05:16:05.515Z,7.80
2019-03-15T05:18:33.927Z,7.80
2019-03-15T05:21:02.320Z,7.80
2019-03-15T05:23:30.707Z,7.70
2019-03-15T05:25:59.103Z,7.80
2019-03-15T05:28:27.492Z,7.70
2019-03-15T05:30:55.891Z,7.80
2019-03-15T05:33:24.280Z,7.80
2019-03-15T05:35:52.668Z,7.70
2019-03-15T05:38:21.051Z,7.70
2019-03-15T05:40:49.441Z,7.70
2019-03-15T05:43:17.839Z,7.70
2019-03-15T05:45:46.291Z,7.80
2019-03-15T05:48:14.671Z,7.80
2019-03-15T05:50:43.083Z,7.80
2019-03-15T05:53:11.471Z,7.90
2019-03-15T05:55:39.864Z,7.80
2019-03-15T05:58:08.265Z,7.90
2019-03-15T06:00:36.679Z,7.90
2019-03-15T06:03:05.116Z,7.90
2019-03-15T06:05:33.522Z,7.90
2019-03-15T06:08:01.918Z,7.90
2019-03-15T06:10:30.393Z,7.90
2019-03-15T06:12:58.861Z,7.90
2019-03-15T06:15:27.255Z,7.90
2019-03-15T06:17:55.651Z,7.90
2019-03-15T06:20:24.044Z,7.90
2019-03-15T06:22:52.460Z,7.90
2019-03-15T06:25:20.876Z,7.90
2019-03-15T06:27:49.260Z,7.90
2019-03-15T06:30:17.648Z,7.90
2019-03-15T06:32:46.039Z,7.90
2019-03-15T06:35:14.428Z,7.90
2019-03-15T06:37:42.818Z,8.00
2019-03-15T06:40:13.740Z,7.90
2019-03-15T06:42:42.543Z,7.90
2019-03-15T06:45:14.975Z,7.90
2019-03-15T06:47:43.437Z,8.00
2019-03-15T06:50:12.168Z,7.80
2019-03-15T06:52:40.580Z,7.90
2019-03-15T06:55:09.983Z,7.90
2019-03-15T06:57:38.354Z,7.90
2019-03-15T07:00:12.521Z,8.00
2019-03-15T07:02:40.920Z,8.00
2019-03-15T07:05:12.065Z,8.00
2019-03-15T07:07:40.167Z,8.10
2019-03-15T07:10:10.308Z,8.10
2019-03-15T07:12:40.287Z,8.10
2019-03-15T07:15:11.311Z,8.10
2019-03-15T07:17:39.722Z,8.10
2019-03-15T07:20:11.120Z,8.20
2019-03-15T07:22:39.540Z,8.30
2019-03-15T07:25:09.471Z,8.20
2019-03-15T07:27:37.867Z,8.30
2019-03-15T07:30:09.823Z,8.30
2019-03-15T07:32:38.235Z,8.40
2019-03-15T07:35:07.547Z,8.50
2019-03-15T07:37:36.044Z,8.50
2019-03-15T07:40:07.344Z,8.60
2019-03-15T07:42:35.747Z,8.60
2019-03-15T07:45:07.179Z,8.70
2019-03-15T07:47:35.589Z,8.60
2019-03-15T07:50:05.315Z,8.70
2019-03-15T07:52:33.715Z,8.80
2019-03-15T07:55:02.179Z,8.90
2019-03-15T07:57:30.568Z,8.90
2019-03-15T07:59:58.959Z,9.10
2019-03-15T08:02:27.379Z,9.00
2019-03-15T08:04:55.775Z,9.00
2019-03-15T08:07:35.740Z,9.10
2019-03-15T08:09:54.284Z,9.10
2019-03-15T08:12:22.711Z,9.10
2019-03-15T08:14:51.107Z,9.00
2019-03-15T08:17:19.503Z,9.00
2019-03-15T08:19:47.903Z,9.00
2019-03-15T08:22:16.344Z,9.00
2019-03-15T08:24:51.502Z,8.90
2019-03-15T08:27:16.157Z,8.90
2019-03-15T08:29:44.777Z,8.90
2019-03-15T08:32:13.176Z,8.90
2019-03-15T08:34:41.635Z,8.90
2019-03-15T08:37:10.061Z,8.90
2019-03-15T08:39:38.487Z,8.90
2019-03-15T08:42:06.881Z,8.90
2019-03-15T08:44:35.268Z,9.00
2019-03-15T08:47:03.680Z,8.80
2019-03-15T08:49:32.071Z,8.90
2019-03-15T08:52:04.078Z,8.90
2019-03-15T08:54:30.712Z,9.00
2019-03-15T08:56:59.112Z,9.00
2019-03-15T08:59:27.503Z,9.00
2019-03-15T09:01:55.888Z,8.90
2019-03-15T09:04:24.311Z,8.90
2019-03-15T09:06:52.710Z,8.90
2019-03-15T09:09:21.103Z,8.90
2019-03-15T09:11:49.643Z,9.00
2019-03-15T09:14:18.040Z,9.00
2019-03-15T09:16:47.448Z,9.00
2019-03-15T09:19:15.858Z,9.10
2019-03-15T09:21:44.251Z,9.10
2019-03-15T09:24:12.652Z,9.30
2019-03-15T09:26:41.068Z,9.40
2019-03-15T09:29:09.460Z,9.40
2019-03-15T09:31:47.766Z,9.50
2019-03-15T09:34:07.963Z,9.60
2019-03-15T09:36:49.019Z,9.70
2019-03-15T09:39:06.837Z,9.80
2019-03-15T09:41:39.709Z,9.80
2019-03-15T09:44:05.645Z,9.90
2019-03-15T09:46:34.166Z,9.90
2019-03-15T09:49:02.640Z,10.00
2019-03-15T09:51:31.116Z,10.10
2019-03-15T09:53:59.540Z,10.10
2019-03-15T09:56:28.059Z,10.30
2019-03-15T09:58:56.423Z,10.30
2019-03-15T10:01:34.809Z,10.30
2019-03-15T10:03:54.967Z,10.30
2019-03-15T10:06:23.381Z,10.40
2019-03-15T10:08:51.813Z,10.50
2019-03-15T10:11:20.224Z,10.50
2019-03-15T10:13:48.639Z,10.50
2019-03-15T10:16:17.083Z,10.60
2019-03-15T10:18:45.495Z,10.60
2019-03-15T10:21:13.913Z,10.60
2019-03-15T10:23:42.595Z,10.50
2019-03-15T10:26:10.989Z,10.50
2019-03-15T10:28:39.381Z,10.50
2019-03-15T10:31:07.783Z,10.50
2019-03-15T10:33:49.609Z,10.60
2019-03-15T10:36:06.352Z,10.60
2019-03-15T10:38:34.744Z,10.60
2019-03-15T10:41:03.179Z,10.70
2019-03-15T10:43:31.607Z,10.70
2019-03-15T10:46:00.012Z,10.90
2019-03-15T10:48:28.405Z,10.90
2019-03-15T10:50:56.901Z,10.90
2019-03-15T10:53:25.303Z,11.00
2019-03-15T10:56:00.023Z,11.00
2019-03-15T10:58:23.830Z,11.00
2019-03-15T11:00:52.239Z,11.10
2019-03-15T11:03:20.643Z,11.10
2019-03-15T11:05:49.365Z,11.20
2019-03-15T11:08:17.771Z,11.20
2019-03-15T11:10:46.162Z,11.30
2019-03-15T11:13:15.572Z,11.30
2019-03-15T11:15:43.985Z,11.30
2019-03-15T11:18:12.391Z,11.30
2019-03-15T11:20:40.795Z,11.40
2019-03-15T11:23:09.193Z,11.40
2019-03-15T11:25:37.584Z,11.50
2019-03-15T11:28:06.069Z,11.50
2019-03-15T11:30:34.471Z,11.50
2019-03-15T11:33:02.881Z,11.60
2019-03-15T11:35:31.282Z,11.70
2019-03-15T11:37:59.680Z,11.70
2019-03-15T11:40:28.094Z,11.80
2019-03-15T11:42:56.501Z,11.90
2019-03-15T11:45:24.920Z,11.90
2019-03-15T11:48:03.273Z,11.90
2019-03-15T11:50:23.451Z,12.10
2019-03-15T11:52:51.890Z,12.10
2019-03-15T11:55:20.420Z,12.20
2019-03-15T12:00:17.728Z,12.60
2019-03-15T12:02:46.131Z,12.80
2019-03-15T12:05:15.287Z,12.90
2019-03-15T12:07:43.823Z,13.00
2019-03-15T12:10:14.188Z,13.20
2019-03-15T12:12:42.658Z,13.30
2019-03-15T12:15:18.443Z,13.30
2019-03-15T12:17:46.845Z,13.20
2019-03-15T12:20:15.333Z,13.10
2019-03-15T12:22:43.828Z,12.90
2019-03-15T12:25:12.669Z,12.90
2019-03-15T12:27:41.083Z,12.80
2019-03-15T12:30:12.574Z,12.80
2019-03-15T12:32:41.005Z,12.70
2019-03-15T12:35:11.044Z,12.70
2019-03-15T12:37:39.439Z,12.60
2019-03-15T12:40:12.969Z,12.60
2019-03-15T12:42:42.029Z,12.60
2019-03-15T12:45:11.497Z,12.60
2019-03-15T12:47:39.968Z,12.60
2019-03-15T12:50:13.072Z,12.60
2019-03-15T12:52:47.642Z,12.60
2019-03-15T12:55:15.353Z,12.70
2019-03-15T12:57:43.794Z,12.60
2019-03-15T13:00:14.512Z,12.60
2019-03-15T13:02:42.929Z,12.60
2019-03-15T13:05:11.468Z,12.60
2019-03-15T13:07:39.865Z,12.60
2019-03-15T13:10:13.995Z,12.70
2019-03-15T13:12:42.420Z,12.90
2019-03-15T13:15:13.172Z,13.20
2019-03-15T13:17:41.698Z,13.20
2019-03-15T13:20:12.152Z,13.30
2019-03-15T13:22:40.640Z,13.30
2019-03-15T13:25:12.496Z,13.30
2019-03-15T13:27:40.905Z,13.20
2019-03-15T13:30:16.249Z,13.20
2019-03-15T13:32:44.807Z,13.20
2019-03-15T13:35:13.321Z,13.20
2019-03-15T13:37:43.052Z,13.20
2019-03-15T13:40:13.384Z,13.30
2019-03-15T13:42:41.843Z,13.40
2019-03-15T13:45:12.345Z,13.40
2019-03-15T13:47:40.777Z,13.40
2019-03-15T13:50:14.652Z,13.40
2019-03-15T13:52:43.065Z,13.30
2019-03-15T13:57:39.716Z,13.60
2019-03-15T14:00:16.080Z,13.70
2019-03-15T14:02:44.551Z,13.80
2019-03-15T14:05:13.020Z,13.80
2019-03-15T14:07:41.419Z,13.80
2019-03-15T14:10:14.954Z,13.80
2019-03-15T14:12:43.655Z,13.80
2019-03-15T14:15:14.259Z,13.70
2019-03-15T14:17:42.662Z,13.70
2019-03-15T14:20:12.103Z,13.50
2019-03-15T14:22:40.592Z,13.40
2019-03-15T14:25:19.580Z,13.30
2019-03-15T14:27:47.976Z,13.20
2019-03-15T14:30:16.398Z,13.00
2019-03-15T14:32:45.052Z,12.90
2019-03-15T14:35:13.542Z,12.80
2019-03-15T14:37:42.030Z,12.90
2019-03-15T14:40:12.985Z,12.90
2019-03-15T14:42:41.593Z,12.90
2019-03-15T14:45:14.163Z,12.80
2019-03-15T14:47:42.720Z,12.70
2019-03-15T14:50:13.735Z,12.70
2019-03-15T14:52:42.360Z,12.60
2019-03-15T14:55:12.133Z,12.60
2019-03-15T14:57:51.306Z,12.60
2019-03-15T15:00:16.413Z,12.60
2019-03-15T15:02:44.831Z,12.60
2019-03-15T15:05:13.280Z,12.60
2019-03-15T15:07:41.683Z,12.60
2019-03-15T15:10:14.028Z,12.70
2019-03-15T15:12:42.503Z,12.70
2019-03-15T15:15:13.573Z,12.70
2019-03-15T15:17:42.096Z,12.70
2019-03-15T15:20:12.267Z,12.70
2019-03-15T15:22:40.795Z,12.70
2019-03-15T15:25:14.577Z,12.70
2019-03-15T15:27:42.967Z,12.70
2019-03-15T15:30:14.006Z,12.70
2019-03-15T15:32:42.468Z,12.70
2019-03-15T15:35:12.210Z,12.70
2019-03-15T15:37:40.613Z,12.70
2019-03-15T15:40:13.907Z,12.70
2019-03-15T15:42:42.371Z,12.70
2019-03-15T15:45:12.532Z,12.70
2019-03-15T15:47:43.239Z,12.70
2019-03-15T15:50:13.186Z,12.70
2019-03-15T15:52:41.586Z,12.70
2019-03-15T15:55:14.599Z,12.60
2019-03-15T15:57:43.254Z,12.60
2019-03-15T16:00:13.740Z,12.60
2019-03-15T16:02:42.158Z,12.50
2019-03-15T16:05:10.721Z,12.50
2019-03-15T16:07:39.139Z,12.40
2019-03-15T16:10:13.207Z,12.30
2019-03-15T16:12:41.762Z,12.30
2019-03-15T16:15:15.253Z,12.20
2019-03-15T16:19:02.176Z,12.20
2019-03-15T16:20:15.398Z,12.10
2019-03-15T16:22:43.890Z,11.90
2019-03-15T16:25:12.941Z,11.90
2019-03-15T16:27:41.399Z,11.90
2019-03-15T16:30:14.943Z,11.90
2019-03-15T16:32:43.371Z,11.80
2019-03-15T16:35:13.027Z,11.80
2019-03-15T16:37:41.580Z,11.80
2019-03-15T16:40:12.191Z,11.70
2019-03-15T16:42:40.660Z,11.60
2019-03-15T16:45:17.659Z,11.60
2019-03-15T16:47:46.074Z,11.50
2019-03-15T16:50:14.539Z,11.50
2019-03-15T16:52:44.606Z,11.30
2019-03-15T16:55:13.400Z,11.20
2019-03-15T16:57:41.874Z,11.00
2019-03-15T17:00:12.649Z,11.00
2019-03-15T17:02:41.050Z,10.90
2019-03-15T17:05:11.945Z,10.90
2019-03-15T17:10:15.734Z,10.60
2019-03-15T17:12:44.228Z,10.50
2019-03-15T17:15:14.956Z,10.50
2019-03-15T17:17:43.368Z,10.40
2019-03-15T17:20:12.136Z,10.40
2019-03-15T17:22:40.531Z,10.40
2019-03-15T17:25:10.681Z,10.50
2019-03-15T17:27:39.079Z,10.50
2019-03-15T17:30:12.715Z,10.50
2019-03-15T17:32:41.184Z,10.50
2019-03-15T17:35:11.632Z,10.60
2019-03-15T17:37:40.195Z,10.60
2019-03-15T17:40:11.431Z,10.50
2019-03-15T17:42:39.827Z,10.40
2019-03-15T17:45:09.177Z,10.40
2019-03-15T17:47:37.551Z,10.40
2019-03-15T17:50:09.154Z,10.40
2019-03-15T17:52:37.535Z,10.50
2019-03-15T17:55:06.799Z,10.50
2019-03-15T17:57:35.175Z,10.40
2019-03-15T18:00:28.144Z,10.40
2019-03-15T18:02:56.531Z,10.40
2019-03-15T18:05:24.920Z,10.40
2019-03-15T18:07:53.427Z,10.40
2019-03-15T18:10:21.887Z,10.30
2019-03-15T18:12:50.282Z,10.30
2019-03-15T18:15:18.687Z,10.30
2019-03-15T18:17:47.091Z,10.40
2019-03-15T18:20:15.467Z,10.30
2019-03-15T18:22:43.872Z,10.30
2019-03-15T18:25:12.403Z,10.20
2019-03-15T18:27:40.960Z,10.20
2019-03-15T18:30:14.584Z,10.20
2019-03-15T18:32:43.048Z,10.20
2019-03-15T18:35:11.763Z,10.20
2019-03-15T18:37:40.173Z,10.10
2019-03-15T18:40:18.765Z,10.10
2019-03-15T18:42:47.291Z,10.10
2019-03-15T18:45:16.719Z,10.00
2019-03-15T18:47:45.120Z,10.00
2019-03-15T18:50:25.042Z,10.00
2019-03-15T18:52:53.671Z,9.90
2019-03-15T18:55:22.234Z,9.90
2019-03-15T18:57:50.724Z,9.90
2019-03-15T19:00:23.716Z,9.90
2019-03-15T19:02:52.263Z,9.90
2019-03-15T19:05:20.654Z,9.90
2019-03-15T19:07:49.188Z,9.80
2019-03-15T19:10:17.600Z,9.90
2019-03-15T19:12:46.015Z,9.80
2019-03-15T19:15:19.096Z,9.80
2019-03-15T19:17:47.487Z,9.80
2019-03-15T19:20:16.533Z,9.80
2019-03-15T19:22:45.080Z,9.80
2019-03-15T19:25:14.820Z,9.80
2019-03-15T19:27:43.307Z,9.80
2019-03-15T19:30:15.725Z,9.80
2019-03-15T19:32:44.209Z,9.80
2019-03-15T19:35:12.694Z,9.80
2019-03-15T19:37:41.119Z,9.70
2019-03-15T19:40:15.448Z,9.70
2019-03-15T19:42:45.436Z,9.60
2019-03-15T19:45:15.013Z,9.60
2019-03-15T19:47:43.480Z,9.60
2019-03-15T19:50:17.323Z,9.60
2019-03-15T19:52:45.779Z,9.50
2019-03-15T19:55:14.866Z,9.50
2019-03-15T19:57:43.316Z,9.40
2019-03-15T20:00:23.720Z,9.40
2019-03-15T20:02:52.137Z,9.50
2019-03-15T20:05:23.386Z,9.50
2019-03-15T20:07:51.912Z,9.50
2019-03-15T20:10:20.482Z,9.50
2019-03-15T20:12:49.135Z,9.50
2019-03-15T20:15:17.879Z,9.50
2019-03-15T20:17:46.379Z,9.50
2019-03-15T20:20:18.688Z,9.50
2019-03-15T20:22:47.140Z,9.60
2019-03-15T20:25:16.086Z,9.50
2019-03-15T20:27:44.483Z,9.50
2019-03-15T20:30:25.940Z,9.50
2019-03-15T20:32:51.187Z,9.40
2019-03-15T20:35:19.616Z,9.40
2019-03-15T20:37:48.386Z,9.40
2019-03-15T20:40:17.048Z,9.40
2019-03-15T20:42:45.455Z,9.40
2019-03-15T20:45:18.191Z,9.40
2019-03-15T20:47:46.600Z,9.40
2019-03-15T20:50:15.052Z,9.40
2019-03-15T20:52:43.512Z,9.50
2019-03-15T20:55:12.424Z,9.40
2019-03-15T20:57:40.808Z,9.40
2019-03-15T21:00:34.369Z,9.40
2019-03-15T21:02:51.047Z,9.40
2019-03-15T21:05:19.512Z,9.40
2019-03-15T21:07:47.919Z,9.40
2019-03-15T21:10:17.467Z,9.30
2019-03-15T21:12:45.873Z,9.30
2019-03-15T21:15:15.205Z,9.20
2019-03-15T21:17:43.676Z,9.10
2019-03-15T21:20:16.322Z,9.10
2019-03-15T21:22:44.714Z,9.10
2019-03-15T21:25:13.108Z,9.10
2019-03-15T21:27:52.870Z,9.10
2019-03-15T21:30:19.056Z,9.00
2019-03-15T21:32:47.458Z,9.10
2019-03-15T21:35:15.844Z,9.10
2019-03-15T21:37:44.228Z,9.00
2019-03-15T21:40:17.174Z,9.00
2019-03-15T21:42:45.596Z,9.00
2019-03-15T21:45:14.227Z,9.00
2019-03-15T21:47:42.612Z,9.00
2019-03-15T21:50:18.415Z,9.10
2019-03-15T21:52:46.806Z,9.10
2019-03-15T21:55:16.067Z,9.10
2019-03-15T21:57:44.558Z,9.10
2019-03-15T22:00:17.056Z,9.10
2019-03-15T22:02:45.447Z,9.10
2019-03-15T22:05:13.847Z,9.10
2019-03-15T22:07:42.235Z,9.20
2019-03-15T22:10:12.728Z,9.20
2019-03-15T22:12:41.199Z,9.20
2019-03-15T22:15:10.927Z,9.20
2019-03-15T22:17:39.400Z,9.20
2019-03-15T22:20:10.695Z,9.20
2019-03-15T22:22:39.080Z,9.20
2019-03-15T22:25:08.604Z,9.20
2019-03-15T22:27:37.140Z,9.20
2019-03-15T22:30:08.631Z,9.20
2019-03-15T22:32:37.351Z,9.20
2019-03-15T22:35:06.392Z,9.20
2019-03-15T22:37:34.780Z,9.20
2019-03-15T22:40:04.531Z,9.20
2019-03-15T22:42:32.939Z,9.20
2019-03-15T22:45:01.337Z,9.20
2019-03-15T22:47:29.716Z,9.20
2019-03-15T22:49:58.130Z,9.20
2019-03-15T22:52:26.508Z,9.20
2019-03-15T22:54:54.890Z,9.20
2019-03-15T22:57:23.283Z,9.20
2019-03-15T22:59:51.666Z,9.20
2019-03-15T23:02:20.053Z,9.20
2019-03-15T23:04:48.454Z,9.20
2019-03-15T23:07:16.920Z,9.20
2019-03-15T23:09:45.299Z,9.20
2019-03-15T23:12:13.683Z,9.20
2019-03-15T23:14:42.076Z,9.20
2019-03-15T23:17:10.471Z,9.20
2019-03-15T23:19:38.867Z,9.20
2019-03-15T23:22:07.280Z,9.20
2019-03-15T23:24:35.650Z,9.20
2019-03-15T23:27:04.022Z,9.20
2019-03-15T23:29:32.416Z,9.10
2019-03-15T23:32:00.851Z,9.10
2019-03-15T23:34:29.244Z,9.10
2019-03-15T23:36:57.631Z,9.10
2019-03-15T23:39:26.401Z,9.10
2019-03-15T23:41:55.399Z,9.10
2019-03-15T23:44:23.971Z,9.10
2019-03-15T23:46:52.379Z,9.10
2019-03-15T23:49:20.767Z,9.10
2019-03-15T23:51:49.147Z,9.10
2019-03-15T23:54:17.543Z,9.10
2019-03-15T23:56:45.927Z,9.10
2019-03-15T23:59:14.319Z,9.10
